Time;durP1;ratioP1;P1;durP2;ratioP2;P2;SDS_P1;SDS_P2;PMS_P1;PMS_P2;Temp;Humidity;BMP_temperature;BMP_pressure;BME280_temperature;BME280_humidity;BME280_pressure;Samples;Min_cycle;Max_cycle;Signal;HPM_P1;HPM_P2
2023/05/08 00:00:22;;;;;;;10.80;7.60;;;;;;;;;;5092298;28;20394;-63
2023/05/08 00:02:47;;;;;;;11.50;7.78;;;;;;;;;;5092044;28;20016;-63
2023/05/08 00:05:13;;;;;;;11.98;7.90;;;;;;;;;;5091549;28;20028;-63
2023/05/08 00:07:38;;;;;;;9.05;7.45;;;;;;;;;;5086361;28;20012;-63
2023/05/08 00:10:04;;;;;;;10.50;8.05;;;;;;;;;;5035387;28;20118;-63
2023/05/08 00:12:29;;;;;;;11.93;8.18;;;;;;;;;;5042785;28;20024;-63
2023/05/08 00:14:55;;;;;;;14.13;8.35;;;;;;;;;;5049470;28;20888;-63
2023/05/08 00:17:21;;;;;;;10.52;7.97;;;;;;;;;;5092070;28;20081;-63
2023/05/08 00:19:46;;;;;;;10.27;8.27;;;;;;;;;;5091762;28;20024;-63
2023/05/08 00:22:11;;;;;;;10.35;7.80;;;;;;;;;;5092146;28;20036;-63
2023/05/08 00:24:37;;;;;;;9.68;7.35;;;;;;;;;;5090799;28;20020;-63
2023/05/08 00:27:02;;;;;;;9.55;7.43;;;;;;;;;;5091497;28;20024;-64
2023/05/08 00:29:27;;;;;;;8.23;6.35;;;;;;;;;;5092023;28;20489;-63
2023/05/08 00:31:52;;;;;;;11.30;6.85;;;;;;;;;;5090852;28;20031;-64
2023/05/08 00:34:18;;;;;;;12.10;8.20;;;;;;;;;;5091505;28;20062;-63
2023/05/08 00:36:43;;;;;;;9.35;7.68;;;;;;;;;;5078199;28;20020;-64
2023/05/08 00:39:08;;;;;;;11.63;9.23;;;;;;;;;;5042942;28;20078;-64
2023/05/08 00:41:34;;;;;;;13.88;8.82;;;;;;;;;;5033351;28;20020;-64
2023/05/08 00:43:59;;;;;;;15.75;7.63;;;;;;;;;;5042015;28;20036;-63
2023/05/08 00:46:25;;;;;;;11.43;9.63;;;;;;;;;;5043375;28;20016;-64
2023/05/08 00:48:50;;;;;;;10.73;9.27;;;;;;;;;;5073749;28;20547;-63
2023/05/08 00:51:16;;;;;;;11.05;9.95;;;;;;;;;;5070442;28;20398;-64
2023/05/08 00:53:42;;;;;;;17.02;10.18;;;;;;;;;;5090983;28;20020;-64
2023/05/08 00:56:09;;;;;;;12.57;10.52;;;;;;;;;;5088579;28;20060;-64
2023/05/08 00:58:35;;;;;;;15.93;9.45;;;;;;;;;;5087015;28;20475;-63
2023/05/08 01:01:00;;;;;;;11.05;9.52;;;;;;;;;;5088434;28;20035;-63
2023/05/08 01:03:26;;;;;;;10.35;9.23;;;;;;;;;;5091539;28;20013;-63
2023/05/08 01:05:52;;;;;;;13.73;10.05;;;;;;;;;;5091988;28;20012;-63
2023/05/08 01:08:17;;;;;;;11.23;9.98;;;;;;;;;;5090480;28;20031;-64
2023/05/08 01:10:45;;;;;;;11.55;9.18;;;;;;;;;;5091110;28;20069;-63
2023/05/08 01:13:14;;;;;;;10.18;9.13;;;;;;;;;;5091748;28;20394;-63
2023/05/08 01:15:50;;;;;;;15.75;11.55;;;;;;;;;;5097293;28;20577;-63
2023/05/08 01:18:15;;;;;;;14.13;10.35;;;;;;;;;;5084945;28;20024;-64
2023/05/08 01:20:44;;;;;;;12.50;9.57;;;;;;;;;;5098086;28;20462;-63
2023/05/08 01:23:18;;;;;;;13.70;10.30;;;;;;;;;;5097995;28;20036;-63
2023/05/08 01:25:55;;;;;;;13.23;10.75;;;;;;;;;;5097240;28;20049;-63
2023/05/08 01:28:33;;;;;;;13.63;10.48;;;;;;;;;;5097202;28;20016;-63
2023/05/08 01:31:17;;;;;;;12.63;9.68;;;;;;;;;;5098170;28;20032;-63
2023/05/08 01:33:54;;;;;;;10.88;9.65;;;;;;;;;;5084901;28;20016;-63
2023/05/08 01:36:22;;;;;;;9.77;8.75;;;;;;;;;;5097019;28;20024;-63
2023/05/08 01:39:07;;;;;;;12.65;10.02;;;;;;;;;;5096429;28;20035;-63
2023/05/08 01:41:34;;;;;;;14.93;10.52;;;;;;;;;;5097059;28;20394;-63
2023/05/08 01:43:59;;;;;;;11.00;9.80;;;;;;;;;;5097888;28;20032;-63
2023/05/08 01:46:26;;;;;;;16.77;10.27;;;;;;;;;;5096749;28;20465;-63
2023/05/08 01:49:11;;;;;;;16.52;10.77;;;;;;;;;;5096493;28;20277;-63
2023/05/08 01:51:48;;;;;;;14.57;10.82;;;;;;;;;;5039298;28;20086;-63
2023/05/08 01:54:19;;;;;;;12.27;10.40;;;;;;;;;;5061731;28;20771;-63
2023/05/08 01:56:46;;;;;;;17.05;12.23;;;;;;;;;;5051698;28;20024;-63
2023/05/08 01:59:13;;;;;;;10.85;9.70;;;;;;;;;;5056647;28;20028;-63
2023/05/08 02:01:39;;;;;;;11.30;10.13;;;;;;;;;;5038723;28;20085;-63
2023/05/08 02:04:05;;;;;;;12.27;11.07;;;;;;;;;;5038083;28;20012;-63
2023/05/08 02:06:31;;;;;;;12.13;10.75;;;;;;;;;;5043787;28;20028;-63
2023/05/08 02:08:58;;;;;;;14.02;12.05;;;;;;;;;;5048820;28;20033;-63
2023/05/08 02:11:24;;;;;;;15.57;11.70;;;;;;;;;;5038688;28;20131;-63
2023/05/08 02:13:50;;;;;;;16.50;12.57;;;;;;;;;;5045392;28;20096;-63
2023/05/08 02:16:16;;;;;;;14.23;12.82;;;;;;;;;;5057973;28;20365;-63
2023/05/08 02:18:45;;;;;;;17.45;12.35;;;;;;;;;;5049901;28;20016;-63
2023/05/08 02:21:11;;;;;;;18.23;12.25;;;;;;;;;;5050800;28;20078;-64
2023/05/08 02:23:37;;;;;;;13.60;11.48;;;;;;;;;;5047384;28;20833;-62
2023/05/08 02:26:03;;;;;;;15.82;11.80;;;;;;;;;;5046753;28;20024;-62
2023/05/08 02:28:28;;;;;;;13.75;10.38;;;;;;;;;;5047271;28;20873;-62
2023/05/08 02:30:55;;;;;;;15.25;11.50;;;;;;;;;;5046841;28;20032;-62
2023/05/08 02:33:21;;;;;;;15.73;11.77;;;;;;;;;;5043662;28;20599;-62
2023/05/08 02:35:49;;;;;;;21.75;11.65;;;;;;;;;;5054793;28;20034;-62
2023/05/08 02:38:15;;;;;;;11.02;9.95;;;;;;;;;;5093279;28;20035;-64
2023/05/08 02:40:44;;;;;;;14.57;11.30;;;;;;;;;;5093766;28;20467;-64
2023/05/08 02:43:10;;;;;;;15.50;13.82;;;;;;;;;;5080534;28;20045;-64
2023/05/08 02:45:39;;;;;;;17.90;13.88;;;;;;;;;;5093581;28;20382;-64
2023/05/08 02:48:04;;;;;;;22.67;12.73;;;;;;;;;;5091651;28;20039;-64
2023/05/08 02:50:36;;;;;;;18.70;12.47;;;;;;;;;;5092949;28;20028;-64
2023/05/08 02:53:02;;;;;;;15.73;12.20;;;;;;;;;;5092449;28;20266;-64
2023/05/08 02:55:47;;;;;;;14.65;12.10;;;;;;;;;;5093615;28;20386;-62
2023/05/08 02:58:36;;;;;;;14.45;11.68;;;;;;;;;;5087003;28;20081;-63
2023/05/08 03:01:05;;;;;;;16.88;12.63;;;;;;;;;;5056878;28;20830;-64
2023/05/08 03:03:41;;;;;;;11.55;10.43;;;;;;;;;;5036168;28;20075;-61
2023/05/08 03:06:10;;;;;;;11.05;9.27;;;;;;;;;;5033468;28;20599;-63
2023/05/08 03:08:36;;;;;;;15.20;11.40;;;;;;;;;;5039114;28;20035;-64
2023/05/08 03:11:04;;;;;;;15.63;10.75;;;;;;;;;;5046004;28;20024;-61
2023/05/08 03:13:31;;;;;;;12.88;10.70;;;;;;;;;;5053363;28;20102;-62
2023/05/08 03:15:58;;;;;;;16.15;11.65;;;;;;;;;;5050030;28;20028;-62
2023/05/08 03:18:25;;;;;;;16.27;13.00;;;;;;;;;;5048860;28;20035;-62
2023/05/08 03:20:53;;;;;;;14.85;11.38;;;;;;;;;;5048294;28;20024;-62
2023/05/08 03:23:20;;;;;;;13.65;12.05;;;;;;;;;;5050248;28;20023;-62
2023/05/08 03:25:45;;;;;;;13.82;11.25;;;;;;;;;;5039133;28;20056;-62
2023/05/08 03:28:11;;;;;;;13.98;12.50;;;;;;;;;;5047547;28;20032;-62
2023/05/08 03:30:39;;;;;;;15.50;12.23;;;;;;;;;;5043904;28;20021;-62
2023/05/08 03:33:06;;;;;;;13.38;11.98;;;;;;;;;;5049654;28;20024;-62
2023/05/08 03:35:33;;;;;;;15.15;12.45;;;;;;;;;;5091857;28;20082;-62
2023/05/08 03:37:59;;;;;;;15.40;12.07;;;;;;;;;;5092377;28;20063;-62
2023/05/08 03:40:24;;;;;;;14.55;11.27;;;;;;;;;;5091807;28;20427;-62
2023/05/08 03:42:50;;;;;;;14.50;12.37;;;;;;;;;;5092885;28;20085;-62
2023/05/08 03:45:16;;;;;;;15.90;13.40;;;;;;;;;;5092035;28;20277;-62
2023/05/08 03:47:42;;;;;;;13.52;12.02;;;;;;;;;;5084266;28;20016;-62
2023/05/08 03:50:07;;;;;;;16.92;13.15;;;;;;;;;;5088856;28;20031;-62
2023/05/08 03:52:33;;;;;;;16.02;12.73;;;;;;;;;;5092663;28;20027;-63
2023/05/08 03:55:00;;;;;;;14.40;12.68;;;;;;;;;;5091596;28;20031;-62
2023/05/08 03:57:26;;;;;;;18.70;14.02;;;;;;;;;;5073135;28;20028;-62
2023/05/08 04:00:13;;;;;;;20.98;13.98;;;;;;;;;;5090835;28;20031;-62
2023/05/08 04:02:57;;;;;;;15.15;13.20;;;;;;;;;;5092328;28;20043;-62
2023/05/08 04:05:22;;;;;;;19.23;13.75;;;;;;;;;;5092509;28;20015;-62
2023/05/08 04:07:56;;;;;;;16.77;13.40;;;;;;;;;;5092047;28;20142;-62
2023/05/08 04:10:29;;;;;;;13.02;11.70;;;;;;;;;;5091484;28;20321;-62
2023/05/08 04:13:05;;;;;;;20.88;13.80;;;;;;;;;;5091877;28;20028;-62
2023/05/08 04:15:33;;;;;;;20.80;13.43;;;;;;;;;;5091576;28;20030;-62
2023/05/08 04:17:59;;;;;;;15.25;12.57;;;;;;;;;;5091528;28;20031;-62
2023/05/08 04:20:25;;;;;;;18.10;13.38;;;;;;;;;;5091660;28;20063;-62
2023/05/08 04:22:52;;;;;;;18.63;14.43;;;;;;;;;;5092555;28;20032;-62
2023/05/08 04:25:18;;;;;;;19.88;13.95;;;;;;;;;;5091027;28;20059;-62
2023/05/08 04:27:44;;;;;;;18.33;15.05;;;;;;;;;;5079625;28;20047;-62
2023/05/08 04:30:10;;;;;;;15.95;14.30;;;;;;;;;;5090169;28;20455;-62
2023/05/08 04:32:36;;;;;;;15.63;13.95;;;;;;;;;;5091470;28;20069;-62
2023/05/08 04:35:02;;;;;;;19.13;15.00;;;;;;;;;;5091417;28;20054;-62
2023/05/08 04:37:28;;;;;;;20.38;15.95;;;;;;;;;;5049641;28;20194;-62
2023/05/08 04:39:53;;;;;;;36.30;17.08;;;;;;;;;;5049478;28;20047;-62
2023/05/08 04:42:19;;;;;;;30.20;22.23;;;;;;;;;;5048822;28;20020;-62
2023/05/08 04:44:44;;;;;;;24.98;22.02;;;;;;;;;;5060898;28;20168;-62
2023/05/08 04:47:09;;;;;;;27.33;23.63;;;;;;;;;;5058208;28;20024;-62
2023/05/08 04:49:35;;;;;;;37.28;27.20;;;;;;;;;;5040524;28;20088;-62
2023/05/08 04:52:00;;;;;;;35.63;30.25;;;;;;;;;;5068182;28;20123;-62
2023/05/08 04:54:26;;;;;;;36.45;30.23;;;;;;;;;;5063245;28;20802;-62
2023/05/08 04:56:51;;;;;;;40.28;29.75;;;;;;;;;;5054783;28;20829;-62
2023/05/08 04:59:16;;;;;;;42.75;31.65;;;;;;;;;;5053907;28;20043;-62
2023/05/08 05:01:41;;;;;;;47.15;33.92;;;;;;;;;;5066300;28;20032;-62
2023/05/08 05:04:07;;;;;;;50.78;36.78;;;;;;;;;;5055311;28;20020;-62
2023/05/08 05:06:33;;;;;;;49.85;33.40;;;;;;;;;;5044180;28;21060;-62
2023/05/08 05:08:58;;;;;;;54.03;36.75;;;;;;;;;;5045870;28;20022;-62
2023/05/08 05:11:23;;;;;;;50.78;38.35;;;;;;;;;;5057999;28;20028;-62
2023/05/08 05:13:48;;;;;;;58.00;41.78;;;;;;;;;;5076756;28;20031;-62
2023/05/08 05:16:14;;;;;;;57.85;41.78;;;;;;;;;;5052502;28;20089;-62
2023/05/08 05:18:39;;;;;;;66.38;45.60;;;;;;;;;;5044503;28;20016;-62
2023/05/08 05:21:04;;;;;;;59.92;48.78;;;;;;;;;;5037515;28;20025;-61
2023/05/08 05:23:30;;;;;;;69.18;49.30;;;;;;;;;;5044305;28;20032;-62
2023/05/08 05:25:56;;;;;;;80.80;52.13;;;;;;;;;;5023557;28;20032;-62
2023/05/08 05:28:21;;;;;;;68.05;53.22;;;;;;;;;;5041656;28;20090;-62
2023/05/08 05:30:47;;;;;;;83.82;55.22;;;;;;;;;;5039327;28;20060;-62
2023/05/08 05:33:12;;;;;;;82.82;55.92;;;;;;;;;;5062306;28;20089;-63
2023/05/08 05:35:38;;;;;;;74.07;53.33;;;;;;;;;;5090464;28;20048;-63
2023/05/08 05:38:04;;;;;;;78.05;53.85;;;;;;;;;;5090342;28;20059;-62
2023/05/08 05:40:29;;;;;;;71.13;51.75;;;;;;;;;;5090685;28;20044;-63
2023/05/08 05:42:54;;;;;;;89.93;60.10;;;;;;;;;;5083503;28;20110;-63
2023/05/08 05:45:20;;;;;;;77.53;56.53;;;;;;;;;;5081260;28;20263;-62
2023/05/08 05:47:48;;;;;;;87.75;59.40;;;;;;;;;;5090121;28;20441;-62
2023/05/08 05:50:14;;;;;;;80.55;58.10;;;;;;;;;;5090361;28;20032;-62
2023/05/08 05:52:39;;;;;;;106.43;62.13;;;;;;;;;;5090408;28;20016;-62
2023/05/08 05:55:04;;;;;;;92.63;61.03;;;;;;;;;;5090728;28;20028;-62
2023/05/08 05:57:29;;;;;;;89.05;62.58;;;;;;;;;;5089618;28;20020;-62
2023/05/08 05:59:55;;;;;;;90.73;63.30;;;;;;;;;;5089590;28;20040;-62
2023/05/08 06:02:20;;;;;;;90.45;63.50;;;;;;;;;;5092310;28;20270;-62
2023/05/08 06:04:45;;;;;;;96.53;66.15;;;;;;;;;;5093503;28;20054;-62
2023/05/08 06:07:11;;;;;;;84.95;62.05;;;;;;;;;;5070429;28;20028;-62
2023/05/08 06:09:36;;;;;;;99.13;66.22;;;;;;;;;;5093334;28;20462;-62
2023/05/08 06:12:01;;;;;;;98.68;67.55;;;;;;;;;;5090337;28;20032;-62
2023/05/08 06:14:26;;;;;;;90.97;63.80;;;;;;;;;;5092887;28;20031;-62
2023/05/08 06:16:52;;;;;;;84.88;66.28;;;;;;;;;;5084881;28;20299;-62
2023/05/08 06:19:17;;;;;;;86.60;66.68;;;;;;;;;;5090741;28;20028;-62
2023/05/08 06:21:42;;;;;;;82.90;65.72;;;;;;;;;;5092784;28;20049;-62
2023/05/08 06:24:08;;;;;;;90.68;65.00;;;;;;;;;;5093470;28;20058;-62
2023/05/08 06:26:33;;;;;;;79.88;60.00;;;;;;;;;;5093772;28;20036;-62
2023/05/08 06:28:58;;;;;;;99.78;64.50;;;;;;;;;;5094507;28;20070;-62
2023/05/08 06:31:23;;;;;;;89.60;66.40;;;;;;;;;;5093596;28;20024;-62
2023/05/08 06:33:49;;;;;;;91.40;67.57;;;;;;;;;;5094707;28;20278;-62
2023/05/08 06:36:14;;;;;;;84.40;66.60;;;;;;;;;;5091623;28;20020;-62
2023/05/08 06:38:39;;;;;;;85.15;67.43;;;;;;;;;;5082584;28;20103;-62
2023/05/08 06:41:05;;;;;;;98.28;68.93;;;;;;;;;;5094032;28;20024;-62
2023/05/08 06:43:30;;;;;;;108.18;69.63;;;;;;;;;;5094127;28;20016;-62
2023/05/08 06:45:56;;;;;;;101.72;72.53;;;;;;;;;;5093844;28;20034;-62
2023/05/08 06:48:21;;;;;;;106.60;74.28;;;;;;;;;;5094091;28;20032;-62
2023/05/08 06:50:46;;;;;;;103.53;77.00;;;;;;;;;;5093825;28;20038;-62
2023/05/08 06:53:12;;;;;;;112.78;78.90;;;;;;;;;;5093644;28;20278;-63
2023/05/08 06:55:37;;;;;;;114.20;78.47;;;;;;;;;;5093409;28;20478;-62
2023/05/08 06:58:02;;;;;;;95.03;74.77;;;;;;;;;;5093954;28;20036;-62
2023/05/08 07:00:28;;;;;;;115.90;84.90;;;;;;;;;;5093223;28;20361;-62
2023/05/08 07:02:53;;;;;;;125.13;89.75;;;;;;;;;;5093405;28;20042;-62
2023/05/08 07:05:19;;;;;;;133.40;91.78;;;;;;;;;;5093507;28;20032;-62
2023/05/08 07:07:44;;;;;;;117.30;89.20;;;;;;;;;;5091837;28;20020;-62
2023/05/08 07:10:09;;;;;;;123.07;89.43;;;;;;;;;;5093553;28;20020;-62
2023/05/08 07:12:35;;;;;;;130.73;91.53;;;;;;;;;;5091897;28;20068;-62
2023/05/08 07:15:00;;;;;;;131.57;95.07;;;;;;;;;;5092280;28;20024;-62
2023/05/08 07:17:25;;;;;;;122.68;93.03;;;;;;;;;;5093537;28;20454;-63
2023/05/08 07:19:51;;;;;;;112.30;83.90;;;;;;;;;;5093118;28;20054;-62
2023/05/08 07:22:16;;;;;;;113.43;86.03;;;;;;;;;;5093273;28;20643;-62
2023/05/08 07:24:41;;;;;;;115.13;88.90;;;;;;;;;;5093114;28;20047;-63
2023/05/08 07:27:07;;;;;;;114.63;84.82;;;;;;;;;;5093399;28;20565;-62
2023/05/08 07:29:34;;;;;;;113.20;89.40;;;;;;;;;;5092762;28;20442;-62
2023/05/08 07:32:00;;;;;;;123.55;89.80;;;;;;;;;;5092648;28;20124;-62
2023/05/08 07:34:25;;;;;;;130.00;90.97;;;;;;;;;;5093253;28;20099;-62
2023/05/08 07:36:50;;;;;;;124.57;95.43;;;;;;;;;;5093178;28;20016;-62
2023/05/08 07:39:15;;;;;;;111.90;84.00;;;;;;;;;;5092981;28;20428;-62
2023/05/08 07:41:41;;;;;;;114.43;88.13;;;;;;;;;;5093249;28;20066;-62
2023/05/08 07:44:07;;;;;;;107.63;84.60;;;;;;;;;;5092810;28;20485;-62
2023/05/08 07:46:32;;;;;;;105.13;84.55;;;;;;;;;;5079189;28;20024;-62
2023/05/08 07:48:58;;;;;;;109.80;84.22;;;;;;;;;;5093332;28;20664;-62
2023/05/08 07:51:23;;;;;;;103.05;76.40;;;;;;;;;;5093277;28;20055;-62
2023/05/08 07:53:49;;;;;;;108.45;79.07;;;;;;;;;;5092879;28;20387;-62
2023/05/08 07:56:15;;;;;;;111.35;78.57;;;;;;;;;;5093278;28;20370;-62
2023/05/08 07:58:41;;;;;;;106.68;78.68;;;;;;;;;;5092555;28;20041;-62
2023/05/08 08:01:06;;;;;;;90.25;69.95;;;;;;;;;;5093035;28;20115;-62
2023/05/08 08:03:31;;;;;;;87.35;71.30;;;;;;;;;;5092336;28;20102;-62
2023/05/08 08:05:57;;;;;;;100.13;72.85;;;;;;;;;;5088023;28;20055;-62
2023/05/08 08:08:22;;;;;;;84.63;71.23;;;;;;;;;;5092888;28;20113;-62
2023/05/08 08:10:48;;;;;;;92.65;71.57;;;;;;;;;;5078771;28;20290;-62
2023/05/08 08:13:13;;;;;;;96.97;70.90;;;;;;;;;;5092593;28;20028;-62
2023/05/08 08:15:39;;;;;;;91.00;71.10;;;;;;;;;;5092010;28;20103;-62
2023/05/08 08:18:04;;;;;;;75.80;62.55;;;;;;;;;;5092730;28;20031;-62
2023/05/08 08:20:29;;;;;;;80.15;59.72;;;;;;;;;;5092240;28;20055;-62
2023/05/08 08:22:54;;;;;;;74.68;55.45;;;;;;;;;;5092322;28;20066;-62
2023/05/08 08:25:20;;;;;;;68.45;54.95;;;;;;;;;;5092176;28;20432;-62
2023/05/08 08:27:45;;;;;;;65.35;53.80;;;;;;;;;;5092531;28;20048;-62
2023/05/08 08:30:11;;;;;;;59.47;52.53;;;;;;;;;;5074534;28;20024;-62
2023/05/08 08:32:36;;;;;;;63.63;49.97;;;;;;;;;;5074623;28;20028;-62
2023/05/08 08:35:02;;;;;;;68.35;50.53;;;;;;;;;;5090487;28;20024;-63
2023/05/08 08:37:27;;;;;;;76.22;55.60;;;;;;;;;;5092738;28;20024;-62
2023/05/08 08:39:53;;;;;;;58.83;49.95;;;;;;;;;;5090249;28;20324;-62
2023/05/08 08:42:18;;;;;;;64.82;50.38;;;;;;;;;;5092538;28;20081;-62
2023/05/08 08:44:43;;;;;;;75.07;54.55;;;;;;;;;;5091219;28;20020;-62
2023/05/08 08:47:11;;;;;;;58.03;51.70;;;;;;;;;;5092224;28;20028;-62
2023/05/08 08:49:41;;;;;;;65.40;51.35;;;;;;;;;;5088003;28;20107;-62
2023/05/08 08:52:12;;;;;;;63.22;49.92;;;;;;;;;;5092551;28;20113;-62
2023/05/08 08:54:40;;;;;;;64.07;50.72;;;;;;;;;;5089749;28;20027;-64
2023/05/08 08:57:06;;;;;;;56.92;47.60;;;;;;;;;;5091044;28;20020;-62
2023/05/08 08:59:32;;;;;;;59.50;48.05;;;;;;;;;;5084084;28;20023;-62
2023/05/08 09:02:00;;;;;;;58.72;48.35;;;;;;;;;;5092018;28;20024;-62
2023/05/08 09:04:26;;;;;;;61.38;44.60;;;;;;;;;;5048161;28;20036;-62
2023/05/08 09:06:52;;;;;;;57.53;48.78;;;;;;;;;;5033964;28;20134;-62
2023/05/08 09:09:17;;;;;;;50.90;43.95;;;;;;;;;;5039294;28;20017;-62
2023/05/08 09:11:45;;;;;;;56.38;49.15;;;;;;;;;;5039851;28;20851;-62
2023/05/08 09:14:10;;;;;;;61.65;49.50;;;;;;;;;;5044335;28;20837;-63
2023/05/08 09:16:35;;;;;;;58.90;44.90;;;;;;;;;;5077285;28;20028;-62
2023/05/08 09:19:01;;;;;;;47.67;41.92;;;;;;;;;;5091443;28;20828;-62
2023/05/08 09:21:27;;;;;;;52.92;42.10;;;;;;;;;;5091663;28;20031;-62
2023/05/08 09:23:59;;;;;;;64.82;44.53;;;;;;;;;;5091762;28;20126;-63
2023/05/08 09:26:31;;;;;;;59.03;44.47;;;;;;;;;;5087880;28;20103;-62
2023/05/08 09:29:12;;;;;;;51.58;45.25;;;;;;;;;;5091204;28;20054;-62
2023/05/08 09:31:38;;;;;;;63.72;49.08;;;;;;;;;;5080725;28;20041;-62
2023/05/08 09:34:05;;;;;;;56.53;46.38;;;;;;;;;;5091595;28;20024;-62
2023/05/08 09:36:30;;;;;;;54.97;46.00;;;;;;;;;;5086020;28;20016;-63
2023/05/08 09:38:56;;;;;;;51.25;44.72;;;;;;;;;;5094304;28;20054;-62
2023/05/08 09:41:22;;;;;;;59.40;44.80;;;;;;;;;;5094053;28;20028;-62
2023/05/08 09:44:06;;;;;;;52.63;43.17;;;;;;;;;;5094830;28;20055;-62
2023/05/08 09:46:32;;;;;;;51.13;40.25;;;;;;;;;;5093518;28;20020;-63
2023/05/08 09:48:58;;;;;;;48.75;39.78;;;;;;;;;;5094926;28;20063;-62
2023/05/08 09:51:25;;;;;;;44.60;37.67;;;;;;;;;;5067391;28;20134;-62
2023/05/08 09:53:52;;;;;;;50.20;40.92;;;;;;;;;;5043370;28;20088;-62
2023/05/08 09:56:33;;;;;;;48.83;39.75;;;;;;;;;;5058226;28;20019;-63
2023/05/08 09:58:59;;;;;;;49.50;41.22;;;;;;;;;;5068217;28;20032;-63
2023/05/08 10:01:29;;;;;;;48.40;40.95;;;;;;;;;;5093303;28;20042;-62
2023/05/08 10:03:54;;;;;;;45.28;39.38;;;;;;;;;;5093441;28;20020;-63
2023/05/08 10:06:19;;;;;;;43.17;36.13;;;;;;;;;;5093181;28;20070;-62
2023/05/08 10:08:45;;;;;;;53.17;39.60;;;;;;;;;;5094232;28;20020;-62
2023/05/08 10:11:17;;;;;;;46.97;39.40;;;;;;;;;;5094341;28;20059;-64
2023/05/08 10:13:43;;;;;;;48.38;39.75;;;;;;;;;;5093806;28;20035;-63
2023/05/08 10:16:16;;;;;;;53.42;40.95;;;;;;;;;;5094373;28;20114;-63
2023/05/08 10:18:48;;;;;;;48.58;39.25;;;;;;;;;;5083634;28;20024;-62
2023/05/08 10:21:14;;;;;;;49.33;40.33;;;;;;;;;;5056411;28;20035;-61
2023/05/08 10:23:41;;;;;;;49.92;39.13;;;;;;;;;;5045444;28;20031;-64
2023/05/08 10:26:10;;;;;;;59.38;45.90;;;;;;;;;;5048973;28;20077;-61
2023/05/08 10:28:39;;;;;;;58.22;46.10;;;;;;;;;;5089134;28;20027;-61
2023/05/08 10:31:06;;;;;;;53.85;42.00;;;;;;;;;;5082041;28;20403;-61
2023/05/08 10:33:32;;;;;;;50.22;42.33;;;;;;;;;;5053966;28;20919;-61
2023/05/08 10:35:58;;;;;;;58.38;41.40;;;;;;;;;;5045675;28;20073;-62
2023/05/08 10:38:24;;;;;;;53.22;41.20;;;;;;;;;;5086666;28;20032;-61
2023/05/08 10:40:52;;;;;;;54.15;41.17;;;;;;;;;;5063312;28;20036;-62
2023/05/08 10:43:18;;;;;;;48.38;41.17;;;;;;;;;;5065920;28;20024;-61
2023/05/08 10:45:43;;;;;;;57.53;41.22;;;;;;;;;;5048473;28;20026;-62
2023/05/08 10:48:26;;;;;;;50.03;37.13;;;;;;;;;;5079398;28;20455;-61
2023/05/08 10:50:58;;;;;;;43.17;33.15;;;;;;;;;;5093103;28;20115;-63
2023/05/08 10:53:30;;;;;;;40.63;32.92;;;;;;;;;;5082531;28;20124;-61
2023/05/08 10:55:56;;;;;;;42.40;34.10;;;;;;;;;;5091896;28;20058;-61
2023/05/08 10:58:31;;;;;;;55.10;38.42;;;;;;;;;;5092573;28;20047;-61
2023/05/08 11:00:58;;;;;;;55.38;38.47;;;;;;;;;;5092095;28;20028;-62
2023/05/08 11:03:24;;;;;;;48.72;34.42;;;;;;;;;;5092349;28;20036;-64
2023/05/08 11:05:50;;;;;;;38.88;32.08;;;;;;;;;;5092329;28;20039;-61
2023/05/08 11:08:20;;;;;;;48.00;34.08;;;;;;;;;;5090187;28;20067;-62
2023/05/08 11:10:50;;;;;;;36.70;30.73;;;;;;;;;;5091999;28;20567;-61
2023/05/08 11:13:16;;;;;;;42.70;32.80;;;;;;;;;;5090781;28;20021;-63
2023/05/08 11:15:48;;;;;;;44.92;31.58;;;;;;;;;;5061886;28;20964;-62
2023/05/08 11:18:15;;;;;;;43.00;33.25;;;;;;;;;;5049470;28;20035;-62
2023/05/08 11:20:41;;;;;;;45.80;33.33;;;;;;;;;;5055838;28;20878;-62
2023/05/08 11:23:25;;;;;;;50.78;30.95;;;;;;;;;;5092418;28;20012;-64
2023/05/08 11:25:59;;;;;;;35.20;29.80;;;;;;;;;;5090854;28;20055;-61
2023/05/08 11:28:24;;;;;;;45.85;31.73;;;;;;;;;;5092953;28;20052;-61
2023/05/08 11:30:52;;;;;;;37.40;29.92;;;;;;;;;;5085433;28;20060;-61
2023/05/08 11:33:18;;;;;;;41.13;29.98;;;;;;;;;;5092907;28;20024;-63
2023/05/08 11:35:47;;;;;;;38.20;28.80;;;;;;;;;;5092245;28;20085;-62
2023/05/08 11:38:14;;;;;;;33.88;24.42;;;;;;;;;;5091416;28;20085;-64
2023/05/08 11:40:43;;;;;;;33.28;24.70;;;;;;;;;;5046799;28;20865;-62
2023/05/08 11:43:22;;;;;;;34.00;25.23;;;;;;;;;;5056001;28;20218;-64
2023/05/08 11:45:48;;;;;;;28.85;25.88;;;;;;;;;;5083734;28;20382;-64
2023/05/08 11:48:14;;;;;;;45.65;31.50;;;;;;;;;;5092395;28;20021;-62
2023/05/08 11:50:40;;;;;;;31.77;27.98;;;;;;;;;;5093316;28;20031;-63
2023/05/08 11:53:06;;;;;;;35.50;27.65;;;;;;;;;;5091264;28;20031;-61
2023/05/08 11:55:31;;;;;;;37.10;28.02;;;;;;;;;;5092550;28;20356;-61
2023/05/08 11:57:56;;;;;;;34.65;27.17;;;;;;;;;;5091238;28;20024;-64
2023/05/08 12:00:22;;;;;;;32.37;26.90;;;;;;;;;;5092280;28;20020;-62
2023/05/08 12:02:47;;;;;;;37.58;29.73;;;;;;;;;;5069319;28;20278;-64
2023/05/08 12:05:12;;;;;;;40.25;28.27;;;;;;;;;;5045408;28;20062;-61
2023/05/08 12:07:47;;;;;;;34.65;28.50;;;;;;;;;;5050961;28;20917;-62
2023/05/08 12:10:12;;;;;;;;;;;;;;;;;;5064270;28;20053;-62
2023/05/08 12:12:38;;;;;;;33.47;26.57;;;;;;;;;;5051638;28;19922;-62
2023/05/08 12:15:13;;;;;;;36.72;29.65;;;;;;;;;;5057980;28;20039;-62
2023/05/08 12:17:39;;;;;;;36.50;25.85;;;;;;;;;;5050674;28;20024;-62
2023/05/08 12:20:15;;;;;;;31.17;27.30;;;;;;;;;;5052453;28;20159;-64
2023/05/08 12:22:41;;;;;;;35.22;27.65;;;;;;;;;;5069330;28;20020;-63
2023/05/08 12:25:08;;;;;;;27.75;23.85;;;;;;;;;;5092420;28;20020;-62
2023/05/08 12:27:34;;;;;;;26.48;21.63;;;;;;;;;;5091992;28;20028;-62
2023/05/08 12:29:59;;;;;;;26.17;21.08;;;;;;;;;;5091920;28;20420;-62
2023/05/08 12:32:25;;;;;;;26.80;19.80;;;;;;;;;;5091573;28;20028;-63
2023/05/08 12:34:51;;;;;;;24.80;19.40;;;;;;;;;;5091044;28;20795;-63
2023/05/08 12:37:23;;;;;;;23.55;17.63;;;;;;;;;;5083126;28;20467;-63
2023/05/08 12:39:48;;;;;;;24.73;18.23;;;;;;;;;;5079570;28;20016;-62
2023/05/08 12:42:13;;;;;;;20.60;16.60;;;;;;;;;;5090953;28;20059;-62
2023/05/08 12:44:38;;;;;;;21.70;17.53;;;;;;;;;;5090002;28;20258;-62
2023/05/08 12:47:04;;;;;;;17.07;14.50;;;;;;;;;;5090349;28;20759;-62
2023/05/08 12:49:30;;;;;;;19.33;15.00;;;;;;;;;;5091885;28;20273;-64
2023/05/08 12:52:08;;;;;;;22.58;17.88;;;;;;;;;;5091137;28;20516;-63
2023/05/08 12:54:35;;;;;;;22.77;18.33;;;;;;;;;;5079847;28;20038;-62
2023/05/08 12:57:00;;;;;;;24.30;18.75;;;;;;;;;;5090793;28;20020;-62
2023/05/08 12:59:30;;;;;;;22.67;17.60;;;;;;;;;;5091315;28;20039;-63
2023/05/08 13:01:55;;;;;;;26.13;20.17;;;;;;;;;;5091802;28;20022;-63
2023/05/08 13:04:21;;;;;;;29.23;22.23;;;;;;;;;;5087398;28;20099;-62
2023/05/08 13:06:52;;;;;;;25.63;20.90;;;;;;;;;;5084658;28;20270;-62
2023/05/08 13:09:18;;;;;;;27.65;18.35;;;;;;;;;;5053203;28;20090;-63
2023/05/08 13:11:43;;;;;;;27.53;21.30;;;;;;;;;;5040535;28;20168;-63
2023/05/08 13:14:08;;;;;;;25.48;20.98;;;;;;;;;;5029911;28;20298;-63
2023/05/08 13:16:50;;;;;;;24.42;18.85;;;;;;;;;;5045936;28;20028;-62
2023/05/08 13:19:16;;;;;;;23.67;19.48;;;;;;;;;;5049536;28;20135;-63
2023/05/08 13:21:45;;;;;;;21.02;16.65;;;;;;;;;;5090182;28;20503;-62
2023/05/08 13:24:10;;;;;;;20.08;16.73;;;;;;;;;;5086046;28;20039;-63
2023/05/08 13:26:35;;;;;;;22.02;18.60;;;;;;;;;;5070495;28;20036;-63
2023/05/08 13:29:00;;;;;;;26.50;20.20;;;;;;;;;;5065354;28;20032;-62
2023/05/08 13:31:25;;;;;;;27.77;21.60;;;;;;;;;;5068178;28;20298;-62
2023/05/08 13:33:51;;;;;;;24.87;19.87;;;;;;;;;;5062071;28;20290;-63
2023/05/08 13:36:16;;;;;;;24.77;19.83;;;;;;;;;;5074370;28;20640;-63
2023/05/08 13:38:41;;;;;;;20.95;18.10;;;;;;;;;;5089990;28;20016;-63
2023/05/08 13:41:06;;;;;;;25.60;17.60;;;;;;;;;;5090917;28;20161;-62
2023/05/08 13:43:34;;;;;;;18.73;16.37;;;;;;;;;;5089659;28;20027;-63
2023/05/08 13:45:59;;;;;;;20.08;16.85;;;;;;;;;;5091069;28;20311;-62
2023/05/08 13:48:24;;;;;;;20.90;17.00;;;;;;;;;;5091289;28;20424;-62
2023/05/08 13:50:50;;;;;;;23.43;18.13;;;;;;;;;;5090910;28;20286;-63
2023/05/08 13:53:15;;;;;;;19.90;16.20;;;;;;;;;;5091188;28;20297;-64
2023/05/08 13:55:41;;;;;;;21.20;16.77;;;;;;;;;;5089928;28;20780;-63
2023/05/08 13:58:06;;;;;;;22.73;20.33;;;;;;;;;;5087056;28;20597;-63
2023/05/08 14:00:31;;;;;;;25.35;19.23;;;;;;;;;;5070151;28;20402;-63
2023/05/08 14:02:57;;;;;;;25.30;17.83;;;;;;;;;;5062553;28;20059;-64
2023/05/08 14:05:22;;;;;;;20.83;17.55;;;;;;;;;;5054130;28;20032;-63
2023/05/08 14:07:47;;;;;;;25.23;16.13;;;;;;;;;;5074505;28;20027;-64
2023/05/08 14:10:12;;;;;;;19.02;16.23;;;;;;;;;;5090516;28;20326;-63
2023/05/08 14:12:38;;;;;;;18.45;15.10;;;;;;;;;;5079703;28;20047;-63
2023/05/08 14:15:04;;;;;;;19.13;15.23;;;;;;;;;;5090303;28;20103;-63
2023/05/08 14:17:29;;;;;;;20.75;15.25;;;;;;;;;;5090192;28;20413;-63